Time;durP1;ratioP1;P1;durP2;ratioP2;P2;SDS_P1;SDS_P2;PMS_P1;PMS_P2;Temp;Humidity;BMP_temperature;BMP_pressure;BME280_temperature;BME280_humidity;BME280_pressure;Samples;Min_cycle;Max_cycle;Signal;HPM_P1;HPM_P2
2022/08/06 04:27:00;;;;;;;;;;;;;;;25.04;44.89;99484.56;4494524;27;20026;-71
2022/08/06 04:29:37;;;;;;;;;;;;;;;25.48;44.41;99488.19;4378739;32;33680;-69
2022/08/06 04:32:24;;;;;;;;;;;;;;;25.73;43.82;99488.06;4384294;32;34207;-68
2022/08/06 04:34:59;;;;;;;;;;;;;;;25.93;44.46;99481.47;4387405;32;33478;-70
2022/08/06 04:37:47;;;;;;;;;;;;;;;26.06;44.99;99484.97;4376324;32;34331;-67
2022/08/06 04:40:19;;;;;;;;;;;;;;;26.16;44.79;99484.41;4376003;32;33670;-68
2022/08/06 04:43:20;;;;;;;;;;;;;;;26.48;43.80;99494.69;4375602;32;34895;-68
2022/08/06 04:45:47;;;;;;;;;;;;;;;26.74;42.98;99486.59;4398021;32;35101;-67
2022/08/06 04:48:34;;;;;;;;;;;;;;;27.20;41.93;99499.84;4391269;32;34443;-66
2022/08/06 04:51:12;;;;;;;;;;;;;;;27.30;41.03;99504.06;4392109;32;34118;-65
2022/08/06 04:53:43;;;;;;;;;;;;;;;27.31;40.56;99508.47;4392986;32;34732;-66
2022/08/06 04:56:24;;;;;;;;;;;;;;;27.47;39.42;99509.16;4392865;32;35728;-69
2022/08/06 04:59:03;;;;;;;;;;;;;;;27.57;38.33;99510.56;4393342;32;34564;-71
2022/08/06 05:01:34;;;;;;;;;;;;;;;27.00;40.30;99516.56;4393218;32;33623;-70
2022/08/06 05:04:22;;;;;;;;;;;;;;;27.43;40.87;99508.31;4393306;32;34310;-75
2022/08/06 05:06:54;;;;;;;;;;;;;;;27.98;39.09;99508.94;4402446;32;34599;-72
2022/08/06 05:09:22;;;;;;;;;;;;;;;28.25;38.07;99510.94;4406755;32;35296;-68
2022/08/06 05:12:20;;;;;;;;;;;;;;;28.60;35.21;99516.34;4407069;32;33754;-69
2022/08/06 05:15:02;;;;;;;;;;;;;;;27.73;37.28;99522.41;4407250;32;34296;-68
2022/08/06 05:17:32;;;;;;;;;;;;;;;27.34;38.00;99519.69;4408279;32;34975;-68
2022/08/06 05:20:03;;;;;;;;;;;;;;;27.91;36.97;99516.38;4406969;32;35175;-68
2022/08/06 05:22:30;;;;;;;;;;;;;;;28.43;36.23;99524.00;4406719;32;34454;-67
2022/08/06 05:25:17;;;;;;;;;;;;;;;28.98;35.30;99536.78;4406594;32;34990;-68
2022/08/06 05:27:54;;;;;;;;;;;;;;;29.18;34.91;99532.72;4408008;32;34496;-68
2022/08/06 05:30:41;;;;;;;;;;;;;;;29.37;34.48;99539.31;4408301;32;35090;-69
2022/08/06 05:33:11;;;;;;;;;;;;;;;29.53;35.20;99534.31;4406802;32;33758;-71
2022/08/06 05:35:42;;;;;;;;;;;;;;;29.78;34.40;99539.38;4392182;32;33914;-69
2022/08/06 05:38:29;;;;;;;;;;;;;;;29.80;34.24;99539.81;4392778;32;34432;-72
2022/08/06 05:40:58;;;;;;;;;;;;;;;30.14;34.52;99540.53;4379311;32;34697;-70
2022/08/06 05:43:27;;;;;;;;;;;;;;;30.26;34.92;99543.03;4404089;32;33640;-71
2022/08/06 05:46:17;;;;;;;;;;;;;;;30.33;35.76;99552.72;4402461;32;35046;-69
2022/08/06 05:48:54;;;;;;;;;;;;;;;30.11;37.24;99549.72;4403266;32;35224;-69
2022/08/06 05:51:27;;;;;;;;;;;;;;;30.15;37.02;99550.56;4393041;32;35277;-71
2022/08/06 05:54:22;;;;;;;;;;;;;;;30.19;37.17;99545.75;4399905;32;33724;-72
2022/08/06 05:56:50;;;;;;;;;;;;;;;30.49;36.47;99546.84;4403475;32;35079;-68
2022/08/06 05:59:21;;;;;;;;;;;;;;;30.50;36.82;99542.84;4402014;32;34239;-68
2022/08/06 06:02:08;;;;;;;;;;;;;;;30.64;36.87;99546.53;4379486;32;34429;-68
2022/08/06 06:04:36;;;;;;;;;;;;;;;30.29;38.00;99547.09;4407110;32;33600;-69
2022/08/06 06:07:05;;;;;;;;;;;;;;;30.79;36.60;99550.25;4397888;32;34852;-68
2022/08/06 06:09:35;;;;;;;;;;;;;;;31.16;35.88;99548.47;4401975;32;34666;-69
2022/08/06 06:12:22;;;;;;;;;;;;;;;31.47;36.14;99544.22;4400759;32;35241;-68
2022/08/06 06:15:02;;;;;;;;;;;;;;;31.43;35.23;99544.22;4401020;32;33644;-67
2022/08/06 06:18:01;;;;;;;;;;;;;;;31.56;34.29;99539.03;4391274;32;34200;-69
2022/08/06 06:20:40;;;;;;;;;;;;;;;31.72;33.53;99549.09;4390905;32;34989;-70
2022/08/06 06:23:42;;;;;;;;;;;;;;;31.83;32.87;99541.50;4404568;32;34579;-67
2022/08/06 06:26:16;;;;;;;;;;;;;;;31.56;32.56;99539.03;4405096;32;33646;-68
2022/08/06 06:29:12;;;;;;;;;;;;;;;31.70;32.55;99548.69;4393592;32;34197;-71
2022/08/06 06:31:47;;;;;;;;;;;;;;;31.40;32.71;99558.16;4400408;32;34361;-70
2022/08/06 06:34:53;;;;;;;;;;;;;;;31.53;32.15;99548.22;4392980;32;34155;-71
2022/08/06 06:37:26;;;;;;;;;;;;;;;32.20;31.07;99543.16;4404805;32;33204;-73
2022/08/06 06:40:09;;;;;;;;;;;;;;;32.95;29.13;99553.53;4407083;32;34350;-71
2022/08/06 06:43:01;;;;;;;;;;;;;;;32.70;29.39;99554.41;4407937;32;34566;-71
2022/08/06 06:45:34;;;;;;;;;;;;;;;33.29;28.65;99563.09;4402823;32;34456;-67
2022/08/06 06:48:41;;;;;;;;;;;;;;;33.09;28.64;99562.75;4392680;32;33565;-73
2022/08/06 06:51:10;;;;;;;;;;;;;;;33.69;27.71;99560.91;4392662;32;34134;-68
2022/08/06 06:53:58;;;;;;;;;;;;;;;33.36;28.35;99564.28;4402163;32;35178;-72
2022/08/06 06:56:36;;;;;;;;;;;;;;;34.16;27.32;99573.91;4392894;32;34373;-71
2022/08/06 06:59:10;;;;;;;;;;;;;;;33.52;28.09;99573.00;4403221;32;33710;-69
2022/08/06 07:01:44;;;;;;;;;;;;;;;34.64;27.49;99578.75;4392636;32;35235;-71
2022/08/06 07:04:20;;;;;;;;;;;;;;;35.54;25.36;99578.56;4402295;32;35020;-66
2022/08/06 07:06:54;;;;;;;;;;;;;;;35.52;25.71;99575.38;4392484;32;34506;-65
2022/08/06 07:09:26;;;;;;;;;;;;;;;34.64;26.88;99578.75;4403480;32;34425;-66
2022/08/06 07:12:14;;;;;;;;;;;;;;;35.09;26.56;99581.50;4392726;32;34070;-67
2022/08/06 07:14:48;;;;;;;;;;;;;;;35.05;26.41;99583.56;4392538;32;34457;-67
2022/08/06 07:17:27;;;;;;;;;;;;;;;34.57;27.06;99575.97;4406311;32;34189;-65
2022/08/06 07:20:17;;;;;;;;;;;;;;;34.37;26.90;99582.19;4407575;32;34186;-65
2022/08/06 07:22:46;;;;;;;;;;;;;;;33.68;28.28;99583.84;4400209;32;35005;-65
2022/08/06 07:25:39;;;;;;;;;;;;;;;32.26;30.13;99580.88;4407758;32;34163;-66
2022/08/06 07:28:19;;;;;;;;;;;;;;;32.61;31.02;99587.69;4405456;32;34319;-67
2022/08/06 07:30:48;;;;;;;;;;;;;;;32.87;30.11;99575.22;4394189;32;33769;-65
2022/08/06 07:33:16;;;;;;;;;;;;;;;32.41;30.32;99576.84;4392387;32;35074;-65
2022/08/06 07:35:45;;;;;;;;;;;;;;;32.32;30.60;99584.88;4403681;32;35095;-65
2022/08/06 07:38:14;;;;;;;;;;;;;;;32.26;30.79;99592.09;4403201;32;34442;-69
2022/08/06 07:40:42;;;;;;;;;;;;;;;31.72;31.25;99589.16;4403829;32;32946;-65
2022/08/06 07:43:26;;;;;;;;;;;;;;;32.01;31.36;99586.44;4402814;32;34206;-65
2022/08/06 07:46:00;;;;;;;;;;;;;;;31.68;32.25;99596.75;4403262;32;35280;-66
2022/08/06 07:48:31;;;;;;;;;;;;;;;31.87;32.01;99587.19;4391721;32;35167;-66
2022/08/06 07:51:00;;;;;;;;;;;;;;;32.24;31.38;99592.47;4403457;32;33421;-65
2022/08/06 07:53:31;;;;;;;;;;;;;;;32.26;31.32;99594.91;4402765;32;34807;-67
2022/08/06 07:56:18;;;;;;;;;;;;;;;32.22;30.60;99589.28;4393079;32;35234;-66
2022/08/06 07:58:46;;;;;;;;;;;;;;;32.07;32.48;99585.69;4393536;32;35160;-64
2022/08/06 08:01:13;;;;;;;;;;;;;;;31.66;32.23;99576.72;4393584;32;33415;-65
2022/08/06 08:06:53;;;;;;;;;;;;;;;32.47;31.35;99586.47;4393633;32;34396;-66
2022/08/06 08:09:21;;;;;;;;;;;;;;;32.21;31.47;99587.69;4392181;32;34398;-65
2022/08/06 08:12:11;;;;;;;;;;;;;;;32.54;30.64;99582.91;4392790;32;33862;-66
2022/08/06 08:14:58;;;;;;;;;;;;;;;32.60;31.34;99592.53;4392510;32;34359;-65
2022/08/06 08:17:29;;;;;;;;;;;;;;;32.61;30.27;99582.09;4391662;32;34299;-65
2022/08/06 08:20:03;;;;;;;;;;;;;;;32.47;31.80;99582.87;4392299;32;35979;-66
2022/08/06 08:22:41;;;;;;;;;;;;;;;32.61;30.79;99587.69;4392085;32;33564;-66
2022/08/06 08:25:18;;;;;;;;;;;;;;;32.44;30.46;99592.91;4385618;32;34932;-64
2022/08/06 08:28:05;;;;;;;;;;;;;;;32.14;31.04;99584.88;4389462;32;34429;-66
2022/08/06 08:30:39;;;;;;;;;;;;;;;32.30;31.11;99590.09;4407975;32;34505;-65
2022/08/06 08:33:07;;;;;;;;;;;;;;;32.62;30.27;99589.31;4407752;32;34171;-66
2022/08/06 08:35:38;;;;;;;;;;;;;;;32.91;31.34;99581.63;4408300;32;34280;-68
2022/08/06 08:38:14;;;;;;;;;;;;;;;32.84;30.49;99584.47;4407479;32;34461;-68
2022/08/06 08:40:44;;;;;;;;;;;;;;;32.46;30.53;99581.25;4408282;32;34466;-67
2022/08/06 08:43:13;;;;;;;;;;;;;;;32.79;30.05;99582.09;4408402;32;33794;-67
2022/08/06 08:45:49;;;;;;;;;;;;;;;32.74;29.80;99586.06;4407189;32;34048;-65
2022/08/06 08:48:17;;;;;;;;;;;;;;;32.37;30.54;99578.06;4406744;32;33446;-66
2022/08/06 08:50:45;;;;;;;;;;;;;;;33.01;30.28;99574.41;4393902;32;33541;-66
2022/08/06 08:53:15;;;;;;;;;;;;;;;33.05;30.48;99583.63;4404074;32;33147;-83
2022/08/06 08:56:02;;;;;;;;;;;;;;;33.36;29.24;99596.00;4382208;32;32995;-66
2022/08/06 08:58:50;;;;;;;;;;;;;;;33.43;29.36;99593.16;4402522;32;35327;-68
2022/08/06 09:01:37;;;;;;;;;;;;;;;33.46;28.56;99585.94;4401419;32;34189;-81
2022/08/06 09:04:23;;;;;;;;;;;;;;;33.18;29.46;99584.81;4398015;32;33755;-67
2022/08/06 09:06:54;;;;;;;;;;;;;;;33.93;28.44;99592.09;4404106;32;34280;-66
2022/08/06 09:09:21;;;;;;;;;;;;;;;33.47;29.41;99584.69;4393229;32;35209;-67
2022/08/06 09:11:56;;;;;;;;;;;;;;;33.78;27.77;99587.78;4393098;32;34541;-67
2022/08/06 09:14:32;;;;;;;;;;;;;;;34.13;28.37;99592.44;4390956;32;32387;-67
2022/08/06 09:17:01;;;;;;;;;;;;;;;34.10;28.00;99587.56;4406001;32;35117;-69
2022/08/06 09:19:29;;;;;;;;;;;;;;;34.32;28.16;99588.25;4406891;32;34402;-66
2022/08/06 09:22:06;;;;;;;;;;;;;;;34.37;27.77;99590.63;4407008;32;34563;-71
2022/08/06 09:24:36;;;;;;;;;;;;;;;34.37;27.49;99596.25;4398594;32;33629;-66
2022/08/06 09:27:07;;;;;;;;;;;;;;;34.74;26.38;99593.97;4406750;32;35561;-67
2022/08/06 09:29:55;;;;;;;;;;;;;;;34.84;26.87;99585.41;4402227;32;35326;-67
2022/08/06 09:32:38;;;;;;;;;;;;;;;34.75;26.65;99581.47;4402194;32;35170;-66
2022/08/06 09:35:24;;;;;;;;;;;;;;;34.56;26.63;99591.25;4392919;32;33579;-67
2022/08/06 09:38:12;;;;;;;;;;;;;;;34.31;26.98;99578.22;4402273;32;34058;-67
2022/08/06 09:41:02;;;;;;;;;;;;;;;35.05;26.28;99578.72;4403766;32;35388;-67
2022/08/06 09:43:33;;;;;;;;;;;;;;;34.72;26.68;99588.75;4392688;32;34424;-67
2022/08/06 09:46:37;;;;;;;;;;;;;;;35.11;26.40;99587.53;4391143;32;33438;-66
2022/08/06 09:49:05;;;;;;;;;;;;;;;35.55;26.27;99582.97;4392548;32;33909;-83
2022/08/06 09:52:12;;;;;;;;;;;;;;;34.65;27.00;99580.38;4402152;32;34317;-67
2022/08/06 09:54:40;;;;;;;;;;;;;;;35.07;26.99;99584.75;4392616;32;32993;-66
2022/08/06 09:57:08;;;;;;;;;;;;;;;35.58;26.06;99584.97;4392254;32;34339;-77
2022/08/06 09:59:43;;;;;;;;;;;;;;;35.39;25.90;99580.78;4376356;32;33793;-69
2022/08/06 10:02:17;;;;;;;;;;;;;;;35.54;25.61;99576.53;4389608;32;35206;-66
2022/08/06 10:04:50;;;;;;;;;;;;;;;35.78;25.61;99578.69;4400260;32;34387;-69
2022/08/06 10:07:27;;;;;;;;;;;;;;;36.00;25.72;99584.81;4404686;32;33739;-68
2022/08/06 10:10:07;;;;;;;;;;;;;;;35.69;25.37;99584.84;4395028;32;33701;-68
2022/08/06 10:12:35;;;;;;;;;;;;;;;35.69;25.83;99576.38;4407950;32;35304;-69
2022/08/06 10:15:04;;;;;;;;;;;;;;;35.59;26.15;99586.56;4388152;32;35280;-68
2022/08/06 10:17:38;;;;;;;;;;;;;;;35.88;25.78;99577.72;4378598;32;33748;-67
2022/08/06 10:20:19;;;;;;;;;;;;;;;36.35;24.71;99572.16;4403125;32;34317;-68
2022/08/06 10:22:56;;;;;;;;;;;;;;;36.11;25.02;99577.78;4392962;32;34369;-68
2022/08/06 10:25:24;;;;;;;;;;;;;;;36.02;25.52;99573.87;4398718;32;34463;-68
2022/08/06 10:27:56;;;;;;;;;;;;;;;36.28;24.87;99573.06;4389652;32;34784;-67
2022/08/06 10:30:24;;;;;;;;;;;;;;;36.63;24.12;99570.09;4408574;32;34118;-67
2022/08/06 10:32:55;;;;;;;;;;;;;;;36.22;27.44;99568.34;4408189;32;34211;-68
2022/08/06 10:35:26;;;;;;;;;;;;;;;36.18;25.29;99567.59;4408328;32;35373;-67
2022/08/06 10:37:58;;;;;;;;;;;;;;;36.55;25.33;99575.84;4406971;32;33283;-69
2022/08/06 10:40:30;;;;;;;;;;;;;;;36.10;25.77;99572.56;4407979;32;34052;-67
2022/08/06 10:42:58;;;;;;;;;;;;;;;36.11;26.55;99572.13;4404451;32;34141;-68
2022/08/06 10:45:27;;;;;;;;;;;;;;;36.33;25.70;99561.31;4403074;32;34012;-70
2022/08/06 10:48:15;;;;;;;;;;;;;;;36.90;24.20;99567.19;4402351;32;33913;-68
2022/08/06 10:51:06;;;;;;;;;;;;;;;36.43;25.24;99573.63;4399767;32;34125;-66
2022/08/06 10:53:37;;;;;;;;;;;;;;;36.51;25.01;99566.63;4393545;32;34410;-67
2022/08/06 10:56:26;;;;;;;;;;;;;;;36.60;25.84;99571.72;4392307;32;35293;-69
2022/08/06 10:59:07;;;;;;;;;;;;;;;36.62;25.48;99566.47;4401995;32;33152;-67
2022/08/06 11:02:01;;;;;;;;;;;;;;;36.45;25.99;99568.34;4403097;32;34908;-68
2022/08/06 11:04:34;;;;;;;;;;;;;;;36.80;25.42;99565.34;4392732;32;34334;-66
2022/08/06 11:07:09;;;;;;;;;;;;;;;36.88;24.85;99564.78;4403645;32;34525;-69
2022/08/06 11:09:55;;;;;;;;;;;;;;;36.81;24.92;99558.47;4392880;32;35017;-67
2022/08/06 11:12:34;;;;;;;;;;;;;;;36.94;25.18;99548.91;4392819;32;35151;-66
2022/08/06 11:15:04;;;;;;;;;;;;;;;36.59;25.53;99555.19;4392200;32;34470;-66
2022/08/06 11:17:54;;;;;;;;;;;;;;;36.24;25.61;99557.41;4403924;32;34519;-67
2022/08/06 11:20:33;;;;;;;;;;;;;;;36.32;27.29;99556.88;4392564;32;33793;-68
2022/08/06 11:23:05;;;;;;;;;;;;;;;36.62;26.23;99557.22;4392473;32;34890;-66
2022/08/06 11:25:40;;;;;;;;;;;;;;;36.77;25.97;99552.88;4403140;32;34258;-67
2022/08/06 11:28:13;;;;;;;;;;;;;;;37.13;26.01;99550.19;4407067;32;35394;-68
2022/08/06 11:30:53;;;;;;;;;;;;;;;37.09;26.28;99548.66;4405542;32;33572;-67
2022/08/06 11:33:33;;;;;;;;;;;;;;;37.01;26.03;99550.81;4407243;32;35102;-67
2022/08/06 11:36:00;;;;;;;;;;;;;;;36.78;26.66;99556.50;4406452;32;34115;-68
2022/08/06 11:38:48;;;;;;;;;;;;;;;37.35;25.71;99547.69;4407094;32;34323;-68
2022/08/06 11:41:21;;;;;;;;;;;;;;;37.22;25.66;99546.78;4407970;32;33701;-70
2022/08/06 11:44:08;;;;;;;;;;;;;;;36.72;26.55;99534.41;4405782;32;34780;-68
2022/08/06 11:46:36;;;;;;;;;;;;;;;36.60;27.23;99545.50;4407290;32;35420;-70
2022/08/06 11:49:22;;;;;;;;;;;;;;;37.07;26.57;99536.97;4403005;32;35074;-69
2022/08/06 11:51:53;;;;;;;;;;;;;;;37.24;26.69;99552.00;4401929;32;33710;-69
2022/08/06 11:54:33;;;;;;;;;;;;;;;36.68;26.98;99552.66;4402988;32;34521;-67
2022/08/06 11:57:02;;;;;;;;;;;;;;;36.89;27.30;99551.44;4390912;32;34208;-69
2022/08/06 11:59:58;;;;;;;;;;;;;;;35.53;29.31;99560.03;4392089;32;34531;-68
2022/08/06 12:02:41;;;;;;;;;;;;;;;35.92;28.79;99562.34;4391029;32;33677;-71
2022/08/06 12:05:13;;;;;;;;;;;;;;;35.67;28.75;99564.72;4392165;32;34343;-68
2022/08/06 12:07:49;;;;;;;;;;;;;;;36.35;28.34;99558.03;4392006;32;34165;-69
2022/08/06 12:10:18;;;;;;;;;;;;;;;35.00;29.22;99558.66;4400095;32;35351;-69
2022/08/06 12:12:55;;;;;;;;;;;;;;;35.29;29.59;99562.78;4386442;32;34372;-68
2022/08/06 12:15:28;;;;;;;;;;;;;;;35.79;28.82;99555.69;4392245;32;33991;-68
2022/08/06 12:18:15;;;;;;;;;;;;;;;35.88;29.23;99555.94;4392099;32;35123;-68
2022/08/06 12:20:54;;;;;;;;;;;;;;;36.17;28.83;99549.06;4392121;32;34362;-68
2022/08/06 12:23:24;;;;;;;;;;;;;;;36.24;28.24;99560.25;4400942;32;34440;-68
2022/08/06 12:26:12;;;;;;;;;;;;;;;35.77;29.20;99572.25;4406615;32;34265;-66
2022/08/06 12:28:39;;;;;;;;;;;;;;;35.41;29.57;99566.25;4406458;32;35302;-69
2022/08/06 12:31:06;;;;;;;;;;;;;;;34.94;30.64;99569.59;4413970;32;34581;-69
2022/08/06 12:33:53;;;;;;;;;;;;;;;35.21;30.26;99566.09;4407370;32;33265;-67
2022/08/06 12:36:25;;;;;;;;;;;;;;;34.83;30.83;99564.06;4405879;32;34220;-67
2022/08/06 12:39:02;;;;;;;;;;;;;;;35.17;30.35;99568.97;4406756;32;34235;-67
2022/08/06 12:41:32;;;;;;;;;;;;;;;35.47;30.25;99573.03;4407191;32;34120;-70
2022/08/06 12:44:13;;;;;;;;;;;;;;;34.89;30.32;99565.22;4405484;32;33785;-70
2022/08/06 12:46:46;;;;;;;;;;;;;;;34.87;31.20;99572.50;4406398;32;34179;-68
2022/08/06 12:49:28;;;;;;;;;;;;;;;35.05;30.74;99577.91;4407021;32;34284;-67
2022/08/06 12:52:13;;;;;;;;;;;;;;;35.29;30.56;99571.22;4407473;32;34461;-68
2022/08/06 12:56:03;;;;;;;;;;;;;;;35.74;29.73;99571.03;4484507;31;914566;-67
2022/08/06 12:58:37;;;;;;;;;;;;;;;35.74;29.73;99571.03;4510861;31;33770;-69
2022/08/06 13:01:13;;;;;;;;;;;;;;;34.18;31.33;99565.84;4485669;31;33696;-67
2022/08/06 13:04:02;;;;;;;;;;;;;;;34.91;30.78;99576.88;4512355;31;35432;-67
2022/08/06 13:06:34;;;;;;;;;;;;;;;35.31;30.52;99565.97;4511214;31;34871;-67
2022/08/06 13:09:03;;;;;;;;;;;;;;;34.63;30.84;99568.72;4497850;31;33867;-68
2022/08/06 13:11:34;;;;;;;;;;;;;;;34.37;31.17;99579.38;4511883;31;35000;-65
2022/08/06 13:14:07;;;;;;;;;;;;;;;34.28;31.73;99570.59;4510947;31;34604;-67
2022/08/06 13:16:45;;;;;;;;;;;;;;;34.27;31.91;99566.16;4511046;31;33675;-67
2022/08/06 13:19:21;;;;;;;;;;;;;;;34.63;30.91;99568.72;4511983;31;32983;-67
2022/08/06 13:21:59;;;;;;;;;;;;;;;34.77;31.04;99570.56;4511120;31;34098;-68
2022/08/06 13:24:27;;;;;;;;;;;;;;;35.18;30.79;99581.81;4505033;31;34457;-66
2022/08/06 13:27:01;;;;;;;;;;;;;;;34.93;31.54;99577.25;4495784;31;34681;-66
2022/08/06 13:29:30;;;;;;;;;;;;;;;34.96;31.14;99572.00;4495857;32;33464;-66
2022/08/06 13:32:17;;;;;;;;;;;;;;;34.49;31.62;99576.06;4496227;31;35231;-67
2022/08/06 13:35:01;;;;;;;;;;;;;;;35.17;30.98;99579.44;4496083;32;34360;-66
2022/08/06 13:37:47;;;;;;;;;;;;;;;34.77;31.64;99574.19;4496116;31;33774;-68
2022/08/06 13:40:36;;;;;;;;;;;;;;;34.95;30.64;99576.00;4494601;31;34105;-67
2022/08/06 13:43:03;;;;;;;;;;;;;;;34.36;31.85;99582.59;4495055;31;34890;-66
2022/08/06 13:45:35;;;;;;;;;;;;;;;34.88;32.17;99580.53;4494990;32;33836;-67
2022/08/06 13:48:22;;;;;;;;;;;;;;;35.22;31.25;99595.88;4495902;31;34077;-67
2022/08/06 13:50:50;;;;;;;;;;;;;;;35.18;31.30;99589.50;4495455;31;32659;-67
2022/08/06 13:53:17;;;;;;;;;;;;;;;34.77;32.02;99590.31;4495992;32;33848;-67
2022/08/06 13:55:46;;;;;;;;;;;;;;;34.18;32.81;99597.59;4495973;31;35095;-67
2022/08/06 13:58:29;;;;;;;;;;;;;;;34.03;32.98;99584.81;4495832;31;33819;-66
2022/08/06 14:00:56;;;;;;;;;;;;;;;34.30;32.78;99591.50;4495454;32;34229;-66
2022/08/06 14:03:25;;;;;;;;;;;;;;;34.58;32.00;99600.94;4496268;32;34346;-66
2022/08/06 14:05:53;;;;;;;;;;;;;;;34.59;32.13;99593.25;4475198;32;34219;-68
2022/08/06 14:08:23;;;;;;;;;;;;;;;34.62;32.31;99596.03;4468318;32;34810;-68
2022/08/06 14:11:02;;;;;;;;;;;;;;;34.38;32.89;99600.66;4469269;32;34120;-66
2022/08/06 14:13:29;;;;;;;;;;;;;;;33.81;34.02;99589.78;4469319;32;34097;-66
2022/08/06 14:16:00;;;;;;;;;;;;;;;34.29;33.37;99600.34;4469155;32;35291;-68
2022/08/06 14:18:29;;;;;;;;;;;;;;;34.00;33.54;99592.09;4469631;32;33992;-67
2022/08/06 14:21:00;;;;;;;;;;;;;;;33.85;33.95;99601.84;4476538;32;33996;-68
2022/08/06 14:23:29;;;;;;;;;;;;;;;33.38;34.63;99592.78;4484507;32;34737;-66
2022/08/06 14:26:16;;;;;;;;;;;;;;;33.39;34.56;99598.00;4486474;32;34437;-68
2022/08/06 14:28:53;;;;;;;;;;;;;;;33.01;34.90;99592.06;4485642;32;33977;-68
2022/08/06 14:31:40;;;;;;;;;;;;;;;33.19;34.52;99600.47;4486293;32;33184;-67
2022/08/06 14:34:24;;;;;;;;;;;;;;;33.18;34.67;99612.94;4486591;32;34323;-67
2022/08/06 14:37:02;;;;;;;;;;;;;;;33.08;34.71;99603.31;4486132;32;34526;-67
2022/08/06 14:39:29;;;;;;;;;;;;;;;32.50;36.14;99610.16;4486069;32;34233;-67
2022/08/06 14:45:06;;;;;;;;;;;;;;;32.64;35.75;99607.38;4485962;32;34048;-68
2022/08/06 14:47:33;;;;;;;;;;;;;;;32.17;36.43;99609.31;4486589;32;34430;-67
2022/08/06 14:50:21;;;;;;;;;;;;;;;32.67;36.06;99611.38;4476681;32;35032;-67
2022/08/06 14:53:04;;;;;;;;;;;;;;;33.00;35.08;99612.97;4486028;32;34027;-67
2022/08/06 14:55:32;;;;;;;;;;;;;;;32.19;35.92;99620.16;4486049;32;34216;-68
2022/08/06 14:57:59;;;;;;;;;;;;;;;32.22;36.14;99620.16;4486165;32;35269;-66
2022/08/06 15:00:35;;;;;;;;;;;;;;;31.45;37.49;99631.53;4485936;32;34806;-68
2022/08/06 15:03:05;;;;;;;;;;;;;;;31.57;37.49;99635.97;4485943;32;33290;-68
2022/08/06 15:05:43;;;;;;;;;;;;;;;31.73;36.77;99637.63;4478755;32;34491;-67
2022/08/06 15:08:30;;;;;;;;;;;;;;;31.70;36.87;99650.47;4485403;32;34509;-67
2022/08/06 15:10:59;;;;;;;;;;;;;;;31.06;37.97;99651.72;4486294;32;34976;-68
2022/08/06 15:13:32;;;;;;;;;;;;;;;30.97;38.74;99650.44;4486404;32;33229;-66
2022/08/06 15:16:03;;;;;;;;;;;;;;;31.13;38.48;99655.75;4486418;32;34200;-68
2022/08/06 15:18:51;;;;;;;;;;;;;;;31.36;38.03;99649.87;4484916;32;35397;-66
2022/08/06 15:21:38;;;;;;;;;;;;;;;30.79;39.06;99661.47;4458737;32;34080;-66
2022/08/06 15:24:21;;;;;;;;;;;;;;;30.97;38.76;99664.44;4485976;32;34253;-68
2022/08/06 15:26:51;;;;;;;;;;;;;;;31.00;38.68;99680.50;4485594;32;34283;-75
2022/08/06 15:29:24;;;;;;;;;;;;;;;30.45;39.94;99672.78;4477415;32;35630;-68
2022/08/06 15:31:52;;;;;;;;;;;;;;;30.37;40.31;99674.72;4484627;32;34536;-68
2022/08/06 15:34:23;;;;;;;;;;;;;;;30.57;39.46;99672.50;4484472;32;34142;-72
2022/08/06 15:36:55;;;;;;;;;;;;;;;30.48;39.51;99674.81;4478613;32;33327;-70
2022/08/06 15:39:29;;;;;;;;;;;;;;;30.62;39.32;99680.53;4475131;32;34284;-72
2022/08/06 15:42:17;;;;;;;;;;;;;;;30.22;39.50;99675.72;4459204;32;34099;-73
2022/08/06 15:44:45;;;;;;;;;;;;;;;30.44;39.28;99691.56;4476671;32;34308;-72
2022/08/06 15:47:13;;;;;;;;;;;;;;;30.72;38.52;99690.22;4460011;32;34302;-73
2022/08/06 15:49:41;;;;;;;;;;;;;;;30.27;39.50;99690.16;4456529;32;34231;-66
2022/08/06 15:52:29;;;;;;;;;;;;;;;29.77;40.37;99695.19;4475795;32;33746;-73
2022/08/06 15:54:58;;;;;;;;;;;;;;;30.07;40.10;99688.75;4478017;32;34116;-71
2022/08/06 15:57:27;;;;;;;;;;;;;;;30.57;39.19;99682.91;4469725;32;34980;-71
2022/08/06 16:00:15;;;;;;;;;;;;;;;30.55;39.33;99691.69;4467402;32;34052;-72
2022/08/06 16:02:44;;;;;;;;;;;;;;;30.12;39.94;99687.59;4468435;32;33921;-70
2022/08/06 16:05:18;;;;;;;;;;;;;;;30.20;39.92;99687.31;4468933;32;34102;-71
2022/08/06 16:08:06;;;;;;;;;;;;;;;29.82;40.52;99685.66;4468806;32;34137;-70
2022/08/06 16:10:36;;;;;;;;;;;;;;;29.73;40.47;99697.13;4468716;32;34316;-71
2022/08/06 16:13:09;;;;;;;;;;;;;;;29.37;42.00;99687.44;4454503;32;34871;-68
2022/08/06 16:15:36;;;;;;;;;;;;;;;29.42;41.33;99692.72;4468613;32;33438;-71
2022/08/06 16:18:12;;;;;;;;;;;;;;;29.47;41.42;99695.16;4468441;32;33989;-67
2022/08/06 16:20:58;;;;;;;;;;;;;;;29.59;40.96;99700.53;4469664;32;33822;-71
2022/08/06 16:23:32;;;;;;;;;;;;;;;29.39;41.43;99705.41;4483589;32;34874;-67
2022/08/06 16:26:20;;;;;;;;;;;;;;;29.39;41.31;99705.41;4483794;32;33381;-73
2022/08/06 16:29:08;;;;;;;;;;;;;;;28.83;42.44;99701.38;4482955;32;34327;-69
2022/08/06 16:31:35;;;;;;;;;;;;;;;29.34;41.61;99697.38;4453896;32;32911;-69
2022/08/06 16:34:17;;;;;;;;;;;;;;;29.04;41.91;99689.72;4468604;32;34142;-69
2022/08/06 16:36:55;;;;;;;;;;;;;;;29.13;42.07;99694.25;4458588;32;33111;-68
2022/08/06 16:39:23;;;;;;;;;;;;;;;29.51;41.29;99698.00;4466772;32;34817;-68
2022/08/06 16:42:04;;;;;;;;;;;;;;;29.10;41.94;99700.62;4477395;32;34305;-70
2022/08/06 16:44:32;;;;;;;;;;;;;;;28.73;42.69;99704.78;4483403;32;34889;-68
2022/08/06 16:47:02;;;;;;;;;;;;;;;28.78;42.58;99698.88;4470127;32;34154;-70
2022/08/06 16:49:33;;;;;;;;;;;;;;;29.03;42.22;99701.28;4469600;32;34018;-67
2022/08/06 16:52:20;;;;;;;;;;;;;;;29.08;41.68;99697.34;4481733;32;34146;-66
2022/08/06 16:55:08;;;;;;;;;;;;;;;29.17;41.79;99704.31;4483300;32;34302;-68
2022/08/06 16:57:35;;;;;;;;;;;;;;;29.34;41.51;99702.97;4483283;32;33406;-67
2022/08/06 17:00:05;;;;;;;;;;;;;;;29.38;41.19;99703.03;4483318;32;33706;-70
2022/08/06 17:02:38;;;;;;;;;;;;;;;29.22;41.27;99705.97;4469696;32;34411;-68
2022/08/06 17:05:09;;;;;;;;;;;;;;;29.29;41.58;99708.06;4483686;32;33779;-69
2022/08/06 17:07:47;;;;;;;;;;;;;;;29.11;41.73;99708.59;4482853;32;33565;-72
2022/08/06 17:10:20;;;;;;;;;;;;;;;28.83;42.17;99703.31;4469506;32;33820;-68
2022/08/06 17:12:52;;;;;;;;;;;;;;;28.86;42.43;99707.38;4469763;32;34964;-67
2022/08/06 17:15:28;;;;;;;;;;;;;;;28.94;42.44;99709.91;4470458;32;34888;-69
2022/08/06 17:18:04;;;;;;;;;;;;;;;29.03;41.91;99718.03;4483772;32;33200;-70
2022/08/06 17:20:31;;;;;;;;;;;;;;;28.61;42.63;99722.50;4483472;32;33972;-68
2022/08/06 17:22:58;;;;;;;;;;;;;;;29.04;41.81;99726.03;4481962;32;34214;-70
2022/08/06 17:25:26;;;;;;;;;;;;;;;29.27;41.22;99730.00;4483149;32;34113;-73
2022/08/06 17:28:13;;;;;;;;;;;;;;;28.84;42.18;99727.28;4482197;32;34048;-71
2022/08/06 17:30:41;;;;;;;;;;;;;;;28.35;43.10;99730.75;4481163;32;34261;-70
2022/08/06 17:33:09;;;;;;;;;;;;;;;28.57;42.47;99745.94;4481933;32;34171;-70
2022/08/06 17:35:37;;;;;;;;;;;;;;;28.46;42.77;99742.91;4463058;32;34341;-67
2022/08/06 17:38:24;;;;;;;;;;;;;;;28.42;42.84;99750.41;4480930;32;34047;-70
2022/08/06 17:40:53;;;;;;;;;;;;;;;28.86;41.79;99749.28;4483913;32;34206;-69
2022/08/06 17:43:22;;;;;;;;;;;;;;;27.84;44.04;99742.87;4485241;32;35166;-68
2022/08/06 17:46:09;;;;;;;;;;;;;;;28.48;42.62;99746.19;4485698;32;34784;-72
2022/08/06 17:48:54;;;;;;;;;;;;;;;28.06;43.31;99755.31;4485216;32;33904;-67
2022/08/06 17:51:22;;;;;;;;;;;;;;;28.38;42.40;99760.69;4471553;32;34221;-68
2022/08/06 17:54:00;;;;;;;;;;;;;;;27.88;43.35;99754.91;4484999;32;34116;-68
2022/08/06 17:56:47;;;;;;;;;;;;;;;28.17;42.73;99755.53;4485427;32;33952;-67
2022/08/06 17:59:17;;;;;;;;;;;;;;;27.80;43.35;99762.28;4484638;32;33134;-68
2022/08/06 18:01:49;;;;;;;;;;;;;;;27.88;43.19;99757.69;4468422;32;34114;-70
2022/08/06 18:04:18;;;;;;;;;;;;;;;27.58;43.70;99762.97;4468370;32;34434;-68
2022/08/06 18:06:57;;;;;;;;;;;;;;;27.98;43.08;99756.31;4468639;32;34584;-68
2022/08/06 18:09:27;;;;;;;;;;;;;;;27.60;43.81;99766.22;4476095;32;33054;-70